createdAt,value
2023-09-25T00:01:22.844Z,10.60
2023-09-25T00:03:50.294Z,10.60
2023-09-25T00:06:17.514Z,10.50
2023-09-25T00:08:44.969Z,10.50
2023-09-25T00:11:11.835Z,10.50
2023-09-25T00:13:39.109Z,10.40
2023-09-25T00:16:06.627Z,10.40
2023-09-25T00:18:33.678Z,10.40
2023-09-25T00:21:00.608Z,10.30
2023-09-25T00:23:27.441Z,10.30
2023-09-25T00:26:02.474Z,10.30
2023-09-25T00:28:29.666Z,10.30
2023-09-25T00:30:56.732Z,10.20
2023-09-25T00:33:23.915Z,10.20
2023-09-25T00:35:51.058Z,10.20
2023-09-25T00:38:17.990Z,10.20
2023-09-25T00:40:44.802Z,10.10
2023-09-25T00:43:17.008Z,10.10
2023-09-25T00:45:47.288Z,10.10
2023-09-25T00:48:25.427Z,10.10
2023-09-25T00:50:54.607Z,10.10
2023-09-25T00:53:22.136Z,10.00
2023-09-25T00:55:50.148Z,10.00
2023-09-25T00:58:18.256Z,10.00
2023-09-25T01:00:45.397Z,10.00
2023-09-25T01:03:13.553Z,10.00
2023-09-25T01:05:41.073Z,9.90
2023-09-25T01:08:08.757Z,9.90
2023-09-25T01:10:35.949Z,9.90
2023-09-25T01:13:04.798Z,9.90
2023-09-25T01:15:31.812Z,9.90
2023-09-25T01:17:59.274Z,9.90
2023-09-25T01:20:26.269Z,9.80
2023-09-25T01:22:53.278Z,9.80
2023-09-25T01:25:21.897Z,9.80
2023-09-25T01:27:49.256Z,9.80
2023-09-25T01:30:18.179Z,9.80
2023-09-25T01:32:46.654Z,9.70
2023-09-25T01:35:27.828Z,9.70
2023-09-25T01:37:59.256Z,9.70
2023-09-25T01:40:26.849Z,9.60
2023-09-25T01:42:54.095Z,9.60
2023-09-25T01:45:21.199Z,9.60
2023-09-25T01:47:53.925Z,9.60
2023-09-25T01:50:29.286Z,9.60
2023-09-25T01:53:01.517Z,9.50
2023-09-25T01:55:30.404Z,9.50
2023-09-25T01:57:57.340Z,9.50
2023-09-25T02:00:24.516Z,9.40
2023-09-25T02:02:51.542Z,9.40
2023-09-25T02:05:18.853Z,9.40
2023-09-25T02:07:45.774Z,9.40
2023-09-25T02:10:12.864Z,9.40
2023-09-25T02:12:39.827Z,9.40
2023-09-25T02:15:09.422Z,9.40
2023-09-25T02:17:37.441Z,9.40
2023-09-25T02:20:25.581Z,9.40
2023-09-25T02:22:52.685Z,9.40
2023-09-25T02:25:20.027Z,9.40
2023-09-25T02:27:47.552Z,9.40
2023-09-25T02:30:15.507Z,9.40
2023-09-25T02:32:43.617Z,9.30
2023-09-25T02:35:11.763Z,9.30
2023-09-25T02:37:38.954Z,9.30
2023-09-25T02:40:07.725Z,9.30
2023-09-25T02:42:35.215Z,9.40
2023-09-25T02:45:02.692Z,9.30
2023-09-25T02:47:29.709Z,9.30
2023-09-25T02:49:56.631Z,9.30
2023-09-25T02:52:23.696Z,9.20
2023-09-25T02:54:50.746Z,9.20
2023-09-25T02:57:17.639Z,9.20
2023-09-25T02:59:44.563Z,9.20
2023-09-25T03:02:11.417Z,9.10
2023-09-25T03:04:38.599Z,9.10
2023-09-25T03:07:05.659Z,9.10
2023-09-25T03:09:32.624Z,9.10
2023-09-25T03:12:00.426Z,9.10
2023-09-25T03:14:27.315Z,9.10
2023-09-25T03:16:54.339Z,9.10
2023-09-25T03:19:21.185Z,9.00
2023-09-25T03:21:48.061Z,9.10
2023-09-25T03:24:15.057Z,9.00
2023-09-25T03:26:42.061Z,9.00
2023-09-25T03:29:08.928Z,9.00
2023-09-25T03:31:35.788Z,9.00
2023-09-25T03:34:02.681Z,9.00
2023-09-25T03:36:30.128Z,9.00
2023-09-25T03:38:57.387Z,9.00
2023-09-25T03:41:24.361Z,9.00
2023-09-25T03:43:51.313Z,9.00
2023-09-25T03:46:18.303Z,9.00
2023-09-25T03:48:45.214Z,8.90
2023-09-25T03:51:12.143Z,8.90
2023-09-25T03:53:38.986Z,8.90
2023-09-25T03:56:05.965Z,8.90
2023-09-25T03:58:32.921Z,8.90
2023-09-25T04:01:00.590Z,8.90
2023-09-25T04:03:30.531Z,8.90
2023-09-25T04:05:58.958Z,8.90
2023-09-25T04:08:25.908Z,9.00
2023-09-25T04:10:53.246Z,8.90
2023-09-25T04:13:23.747Z,8.90
2023-09-25T04:15:52.387Z,8.90
2023-09-25T04:18:20.368Z,8.90
2023-09-25T04:20:47.476Z,8.90
2023-09-25T04:23:15.001Z,8.90
2023-09-25T04:25:42.103Z,8.80
2023-09-25T04:28:09.184Z,8.90
2023-09-25T04:30:36.158Z,8.90
2023-09-25T04:33:03.204Z,8.90
2023-09-25T04:35:30.223Z,8.80
2023-09-25T04:37:57.111Z,8.80
2023-09-25T04:40:24.451Z,8.80
2023-09-25T04:42:52.989Z,8.80
2023-09-25T04:45:21.007Z,8.90
2023-09-25T04:47:49.172Z,8.90
2023-09-25T04:50:20.188Z,8.80
2023-09-25T04:52:47.248Z,8.80
2023-09-25T04:55:15.028Z,8.80
2023-09-25T04:57:46.704Z,8.80
2023-09-25T05:00:19.238Z,8.80
2023-09-25T05:02:48.754Z,8.80
2023-09-25T05:05:16.644Z,8.80
2023-09-25T05:07:44.476Z,8.80
2023-09-25T05:10:12.438Z,8.80
2023-09-25T05:12:43.498Z,8.80
2023-09-25T05:15:12.157Z,8.80
2023-09-25T05:17:40.635Z,8.80
2023-09-25T05:20:13.141Z,8.80
2023-09-25T05:22:41.301Z,8.80
2023-09-25T05:25:10.918Z,8.80
2023-09-25T05:27:38.859Z,8.80
2023-09-25T05:30:10.695Z,8.80
2023-09-25T05:32:46.914Z,8.90
2023-09-25T05:35:15.219Z,8.90
2023-09-25T05:37:45.080Z,8.90
2023-09-25T05:40:12.213Z,8.90
2023-09-25T05:42:57.403Z,9.00
2023-09-25T05:45:24.519Z,9.00
2023-09-25T05:47:51.483Z,9.10
2023-09-25T05:50:18.520Z,9.10
2023-09-25T05:52:45.541Z,9.20
2023-09-25T05:55:12.640Z,9.20
2023-09-25T05:57:40.102Z,9.30
2023-09-25T06:00:17.227Z,9.40
2023-09-25T06:02:44.380Z,9.50
2023-09-25T06:05:16.589Z,9.60
2023-09-25T06:07:43.809Z,9.70
2023-09-25T06:10:11.579Z,9.80
2023-09-25T06:12:40.539Z,9.90
2023-09-25T06:15:11.220Z,10.00
2023-09-25T06:17:39.875Z,10.10
2023-09-25T06:20:14.755Z,10.30
2023-09-25T06:22:42.083Z,10.40
2023-09-25T06:25:12.957Z,10.50
2023-09-25T06:27:41.630Z,10.60
2023-09-25T06:30:10.891Z,10.70
2023-09-25T06:32:38.500Z,10.90
2023-09-25T06:35:07.533Z,11.00
2023-09-25T06:37:37.841Z,11.20
2023-09-25T06:40:11.329Z,11.40
2023-09-25T06:42:41.153Z,11.60
2023-09-25T06:45:09.826Z,11.70
2023-09-25T06:47:36.909Z,11.80
2023-09-25T06:50:04.882Z,12.00
2023-09-25T06:52:31.742Z,12.10
2023-09-25T06:54:58.796Z,12.20
2023-09-25T06:57:26.671Z,12.20
2023-09-25T06:59:54.145Z,12.40
2023-09-25T07:02:21.787Z,12.40
2023-09-25T07:04:49.657Z,12.50
2023-09-25T07:07:16.938Z,12.70
2023-09-25T07:09:44.209Z,12.80
2023-09-25T07:12:15.343Z,12.80
2023-09-25T07:14:45.937Z,12.80
2023-09-25T07:17:12.855Z,12.90
2023-09-25T07:19:39.768Z,12.90
2023-09-25T07:22:07.257Z,13.00
2023-09-25T07:24:34.190Z,13.00
2023-09-25T07:27:01.135Z,13.00
2023-09-25T07:29:40.573Z,13.00
2023-09-25T07:32:08.712Z,13.00
2023-09-25T07:34:35.802Z,13.00
2023-09-25T07:37:05.816Z,13.00
2023-09-25T07:39:36.056Z,13.00
2023-09-25T07:42:03.598Z,13.00
2023-09-25T07:44:34.652Z,13.00
2023-09-25T07:47:05.330Z,13.10
2023-09-25T07:49:41.735Z,13.10
2023-09-25T07:52:21.014Z,13.30
2023-09-25T07:54:49.971Z,13.40
2023-09-25T07:57:20.322Z,13.50
2023-09-25T07:59:48.003Z,13.60
2023-09-25T08:02:21.043Z,13.70
2023-09-25T08:04:51.286Z,13.80
2023-09-25T08:07:20.047Z,13.80
2023-09-25T08:09:47.534Z,13.90
2023-09-25T08:12:14.690Z,14.00
2023-09-25T08:14:41.943Z,14.00
2023-09-25T08:17:09.958Z,14.00
2023-09-25T08:19:37.526Z,14.10
2023-09-25T08:22:04.752Z,14.20
2023-09-25T08:24:31.839Z,14.20
2023-09-25T08:26:58.792Z,14.30
2023-09-25T08:29:25.805Z,14.30
2023-09-25T08:31:53.369Z,14.30
2023-09-25T08:34:20.353Z,14.40
2023-09-25T08:36:47.358Z,14.40
2023-09-25T08:39:15.350Z,14.50
2023-09-25T08:41:43.049Z,14.60
2023-09-25T08:44:11.458Z,14.70
2023-09-25T08:46:38.873Z,14.80
2023-09-25T08:49:06.252Z,14.80
2023-09-25T08:51:39.953Z,14.90
2023-09-25T08:54:08.192Z,14.90
2023-09-25T08:56:35.029Z,15.10
2023-09-25T08:59:05.427Z,15.30
2023-09-25T10:39:21.015Z,21.20
2023-09-25T10:42:09.488Z,21.10
2023-09-25T10:44:39.682Z,21.40
2023-09-25T10:47:07.720Z,21.10
2023-09-25T10:49:41.358Z,21.00
2023-09-25T10:52:08.237Z,20.80
2023-09-25T10:54:35.798Z,20.50
2023-09-25T10:57:03.749Z,20.40
2023-09-25T10:59:31.053Z,20.50
2023-09-25T11:01:57.935Z,20.70
2023-09-25T11:04:25.068Z,20.70
2023-09-25T11:06:52.976Z,20.60
2023-09-25T11:09:20.202Z,20.70
2023-09-25T11:11:47.773Z,20.60
2023-09-25T11:14:14.844Z,20.50
2023-09-25T11:16:42.380Z,20.60
2023-09-25T11:19:14.994Z,20.70
2023-09-25T11:21:45.925Z,20.70
2023-09-25T11:24:13.373Z,20.50
2023-09-25T11:26:43.116Z,20.40
2023-09-25T11:29:10.802Z,20.40
2023-09-25T11:31:58.974Z,20.40
2023-09-25T11:34:26.491Z,20.40
2023-09-25T11:36:53.487Z,20.50
2023-09-25T11:39:20.594Z,20.60
2023-09-25T11:41:47.637Z,20.60
2023-09-25T11:44:15.429Z,20.50
2023-09-25T11:46:43.941Z,20.50
2023-09-25T11:49:11.094Z,20.50
2023-09-25T11:51:38.181Z,20.40
2023-09-25T11:54:06.234Z,20.50
2023-09-25T11:56:34.377Z,20.40
2023-09-25T11:59:01.765Z,20.40
2023-09-25T12:01:29.630Z,20.20
2023-09-25T12:03:57.489Z,20.20
2023-09-25T12:06:28.626Z,20.10
2023-09-25T12:08:56.448Z,20.20
2023-09-25T12:11:23.692Z,20.20
2023-09-25T12:13:51.380Z,20.30
2023-09-25T12:16:19.949Z,20.30
2023-09-25T12:18:47.810Z,20.30
2023-09-25T12:21:15.438Z,20.30
2023-09-25T12:23:42.825Z,20.30
2023-09-25T12:28:37.398Z,20.20
2023-09-25T12:31:05.237Z,20.20
2023-09-25T12:33:32.454Z,20.20
2023-09-25T12:35:59.580Z,20.10
2023-09-25T12:38:30.135Z,19.90
2023-09-25T12:40:57.887Z,19.90
2023-09-25T12:43:25.288Z,19.90
2023-09-25T12:45:52.872Z,19.80
2023-09-25T12:48:21.779Z,19.80
2023-09-25T12:50:49.533Z,19.80
2023-09-25T12:53:19.093Z,19.80
2023-09-25T12:55:46.134Z,19.90
2023-09-25T12:58:13.567Z,19.90
2023-09-25T13:00:40.572Z,20.00
2023-09-25T13:03:07.840Z,20.00
2023-09-25T13:05:34.962Z,20.00
2023-09-25T13:08:02.113Z,20.00
2023-09-25T13:10:29.412Z,20.00
2023-09-25T13:12:56.524Z,20.00
2023-09-25T13:15:23.851Z,19.90
2023-09-25T13:17:53.446Z,19.90
2023-09-25T13:20:21.058Z,19.90
2023-09-25T13:22:48.501Z,20.00
2023-09-25T13:25:15.425Z,21.40
2023-09-25T13:27:49.775Z,20.00
2023-09-25T13:30:17.231Z,20.00
2023-09-25T13:32:44.408Z,20.00
2023-09-25T13:35:11.990Z,19.90
2023-09-25T13:37:39.421Z,19.90
2023-09-25T13:40:18.327Z,19.80
2023-09-25T13:42:48.637Z,19.90
2023-09-25T13:45:16.219Z,19.70
2023-09-25T13:47:44.827Z,19.60
2023-09-25T13:50:13.711Z,19.40
2023-09-25T13:52:41.018Z,19.30
2023-09-25T13:55:09.593Z,19.30
2023-09-25T13:57:36.708Z,19.30
2023-09-25T14:00:04.515Z,19.20
2023-09-25T14:02:31.434Z,19.20
2023-09-25T14:04:58.392Z,19.20
2023-09-25T14:07:25.227Z,19.20
2023-09-25T14:09:52.290Z,19.10
2023-09-25T14:12:19.239Z,19.00
2023-09-25T14:14:52.681Z,19.00
2023-09-25T14:17:19.715Z,18.90
2023-09-25T14:19:46.732Z,18.80
2023-09-25T14:22:13.814Z,18.80
2023-09-25T14:24:41.208Z,18.90
2023-09-25T14:27:11.223Z,18.90
2023-09-25T14:29:39.212Z,18.80
2023-09-25T14:32:06.492Z,18.80
2023-09-25T14:34:33.652Z,18.80
2023-09-25T14:37:00.988Z,18.80
2023-09-25T14:39:30.252Z,18.70
2023-09-25T14:41:57.984Z,18.70
2023-09-25T14:44:26.867Z,18.60
2023-09-25T14:46:55.249Z,18.60
2023-09-25T14:49:22.844Z,18.40
2023-09-25T14:51:52.568Z,18.30
2023-09-25T14:54:20.470Z,18.30
2023-09-25T14:56:47.588Z,18.30
2023-09-25T14:59:14.526Z,18.40
2023-09-25T15:01:41.658Z,18.50
2023-09-25T15:04:15.121Z,18.50
2023-09-25T15:09:34.485Z,17.20
2023-09-25T15:12:01.564Z,18.20
2023-09-25T15:14:28.575Z,18.20
2023-09-25T15:16:55.609Z,17.00
2023-09-25T15:19:25.298Z,18.10
2023-09-25T15:24:35.148Z,17.80
2023-09-25T15:27:02.330Z,17.80
2023-09-25T15:29:29.340Z,17.90
2023-09-25T15:31:56.445Z,17.90
2023-09-25T15:34:26.326Z,17.80
2023-09-25T15:36:53.353Z,18.40
2023-09-25T15:39:20.377Z,17.70
2023-09-25T15:41:47.495Z,17.70
2023-09-25T15:44:14.633Z,16.30
2023-09-25T15:46:44.687Z,17.60
2023-09-25T15:49:11.853Z,19.10
2023-09-25T15:51:42.128Z,17.60
2023-09-25T15:54:09.175Z,17.60
2023-09-25T15:56:36.517Z,17.50
2023-09-25T15:59:06.947Z,17.60
2023-09-25T16:01:35.238Z,17.60
2023-09-25T16:04:02.474Z,17.60
2023-09-25T16:06:35.690Z,17.50
2023-09-25T16:09:08.498Z,17.50
2023-09-25T16:11:35.475Z,17.50
2023-09-25T16:14:02.535Z,17.40
2023-09-25T16:28:09.062Z,18.10
2023-09-25T16:30:47.993Z,17.10
2023-09-25T16:33:18.849Z,17.80
2023-09-25T16:35:46.048Z,17.10
2023-09-25T16:38:19.197Z,17.10
2023-09-25T16:40:49.473Z,17.20
2023-09-25T16:43:16.592Z,17.30
2023-09-25T16:45:47.176Z,18.80
2023-09-25T16:48:14.347Z,17.30
2023-09-25T16:50:41.420Z,17.30
2023-09-25T16:53:09.764Z,17.30
2023-09-25T16:55:38.722Z,17.20
2023-09-25T16:58:12.003Z,17.20
2023-09-25T17:00:43.096Z,17.10
2023-09-25T17:03:11.968Z,17.10
2023-09-25T17:05:42.130Z,17.00
2023-09-25T17:08:18.393Z,17.10
2023-09-25T17:11:04.561Z,16.90
2023-09-25T17:13:31.546Z,16.90
2023-09-25T17:15:59.180Z,16.90
2023-09-25T17:18:26.211Z,16.80
2023-09-25T17:20:53.884Z,16.70
2023-09-25T17:23:21.692Z,16.70
2023-09-25T17:25:49.963Z,16.70
2023-09-25T17:28:17.598Z,16.70
2023-09-25T17:30:58.706Z,16.70
2023-09-25T17:33:31.704Z,16.70
2023-09-25T17:35:58.829Z,16.60
2023-09-25T17:38:31.645Z,16.60
2023-09-25T17:40:58.481Z,16.70
2023-09-25T17:43:26.943Z,16.60
2023-09-25T17:45:54.559Z,16.60
2023-09-25T17:48:21.621Z,16.60
2023-09-25T17:50:55.426Z,16.50
2023-09-25T17:53:25.412Z,16.50
2023-09-25T17:55:52.882Z,16.50
2023-09-25T17:58:30.059Z,16.50
2023-09-25T18:00:59.522Z,16.50
2023-09-25T18:03:27.964Z,16.60
2023-09-25T18:05:55.137Z,16.60
2023-09-25T18:08:22.092Z,16.70
2023-09-25T18:10:49.388Z,16.70
2023-09-25T18:13:21.852Z,16.60
2023-09-25T18:15:50.414Z,16.50
2023-09-25T18:18:17.932Z,16.70
2023-09-25T18:20:45.006Z,16.60
2023-09-25T18:23:12.287Z,16.60
2023-09-25T18:25:42.247Z,16.70
2023-09-25T18:28:09.464Z,16.70
2023-09-25T18:30:40.103Z,16.70
2023-09-25T18:33:13.295Z,16.70
2023-09-25T18:35:40.661Z,16.70
2023-09-25T18:38:12.228Z,16.70
2023-09-25T18:40:39.207Z,16.70
2023-09-25T18:43:06.371Z,16.70
2023-09-25T18:45:34.180Z,16.70
2023-09-25T18:48:01.261Z,16.60
2023-09-25T18:50:30.980Z,16.70
2023-09-25T18:52:57.864Z,16.70
2023-09-25T18:55:24.924Z,16.70
2023-09-25T18:57:51.862Z,16.70
2023-09-25T19:00:19.018Z,16.60
2023-09-25T19:02:46.117Z,16.70
2023-09-25T19:05:13.108Z,16.70
2023-09-25T19:07:42.233Z,16.60
2023-09-25T19:10:10.480Z,16.70
2023-09-25T19:12:37.900Z,16.60
2023-09-25T19:15:05.688Z,16.70
2023-09-25T19:17:32.875Z,16.60
2023-09-25T19:20:17.156Z,16.70
2023-09-25T19:22:44.611Z,15.80
2023-09-25T19:25:11.698Z,16.70
2023-09-25T19:27:39.553Z,16.60
2023-09-25T19:30:07.050Z,16.60
2023-09-25T19:32:34.056Z,16.60
2023-09-25T19:35:08.582Z,16.60
2023-09-25T19:37:36.015Z,16.60
2023-09-25T19:40:03.508Z,16.60
2023-09-25T19:42:30.981Z,16.60
2023-09-25T19:45:00.401Z,16.60
2023-09-25T19:47:28.382Z,16.50
2023-09-25T19:49:55.344Z,16.60
2023-09-25T19:52:22.598Z,16.50
2023-09-25T19:54:51.496Z,16.60
2023-09-25T19:57:20.048Z,16.50
2023-09-25T19:59:46.869Z,16.50
2023-09-25T20:02:14.086Z,16.50
2023-09-25T20:04:41.091Z,16.40
2023-09-25T20:07:08.142Z,16.40
2023-09-25T20:09:35.240Z,16.40
2023-09-25T20:12:02.107Z,16.40
2023-09-25T20:14:29.356Z,16.40
2023-09-25T20:16:56.320Z,16.40
2023-09-25T20:19:23.368Z,16.40
2023-09-25T20:21:50.304Z,16.30
2023-09-25T20:24:17.331Z,16.30
2023-09-25T20:26:44.193Z,16.30
2023-09-25T20:29:11.104Z,16.20
2023-09-25T20:31:38.243Z,16.20
2023-09-25T20:34:05.304Z,16.10
2023-09-25T20:36:33.301Z,16.20
2023-09-25T20:39:00.271Z,16.10
2023-09-25T20:41:27.349Z,16.10
2023-09-25T20:43:54.232Z,16.10
2023-09-25T20:46:21.221Z,16.10
2023-09-25T20:48:50.448Z,16.10
2023-09-25T20:51:17.852Z,16.00
2023-09-25T20:53:44.773Z,16.00
2023-09-25T20:56:11.669Z,16.00
2023-09-25T20:58:38.647Z,16.00
2023-09-25T21:01:05.917Z,15.90
2023-09-25T21:03:32.919Z,15.90
2023-09-25T21:05:59.942Z,15.90
2023-09-25T21:08:27.223Z,15.90
2023-09-25T21:10:56.173Z,15.80
2023-09-25T21:13:23.219Z,15.90
2023-09-25T21:15:50.360Z,15.90
2023-09-25T21:18:17.375Z,15.90
2023-09-25T21:20:47.697Z,15.80
2023-09-25T21:23:14.867Z,15.80
2023-09-25T21:25:41.736Z,15.80
2023-09-25T21:28:08.617Z,15.80
2023-09-25T21:30:35.525Z,15.80
2023-09-25T21:33:03.216Z,15.80
2023-09-25T21:35:30.171Z,15.80
2023-09-25T21:37:57.088Z,15.80
2023-09-25T21:40:24.100Z,15.70
2023-09-25T21:42:51.028Z,15.70
2023-09-25T21:45:18.126Z,15.70
2023-09-25T21:47:45.000Z,15.70
2023-09-25T21:50:11.914Z,15.70
2023-09-25T21:52:40.151Z,15.70
2023-09-25T21:55:07.470Z,15.70
2023-09-25T21:57:35.098Z,15.70
2023-09-25T22:00:01.979Z,15.70
2023-09-25T22:02:29.255Z,15.60
2023-09-25T22:04:56.176Z,15.60
2023-09-25T22:07:23.190Z,15.60
2023-09-25T22:09:50.223Z,15.60
2023-09-25T22:12:17.185Z,15.60
2023-09-25T22:14:44.057Z,15.60
2023-09-25T22:17:10.974Z,15.60
2023-09-25T22:19:38.638Z,15.60
2023-09-25T22:22:06.963Z,15.60
2023-09-25T22:24:34.102Z,15.60
2023-09-25T22:27:00.975Z,15.60
2023-09-25T22:29:28.078Z,15.60
2023-09-25T22:31:55.148Z,15.60
2023-09-25T22:34:22.054Z,15.60
2023-09-25T22:36:49.329Z,15.60
2023-09-25T22:39:17.008Z,15.50
2023-09-25T22:41:43.852Z,15.50
2023-09-25T22:44:10.715Z,15.60
2023-09-25T22:46:37.587Z,15.50
2023-09-25T22:49:04.776Z,15.40
2023-09-25T22:51:31.769Z,15.50
2023-09-25T22:53:58.626Z,15.50
2023-09-25T22:56:25.690Z,15.50
2023-09-25T22:58:52.478Z,15.50
2023-09-25T23:01:20.722Z,15.40
2023-09-25T23:03:47.916Z,15.40
2023-09-25T23:06:14.829Z,15.40
2023-09-25T23:08:41.704Z,15.40
2023-09-25T23:11:09.419Z,15.40
2023-09-25T23:13:36.432Z,15.40
2023-09-25T23:16:03.470Z,15.40
2023-09-25T23:18:30.397Z,15.40
2023-09-25T23:20:57.343Z,15.30
2023-09-25T23:23:24.222Z,15.40
2023-09-25T23:25:51.412Z,15.30
2023-09-25T23:28:18.459Z,15.30
2023-09-25T23:30:45.520Z,15.30
2023-09-25T23:33:13.590Z,15.30
2023-09-25T23:35:42.813Z,15.30
2023-09-25T23:38:09.735Z,15.30
2023-09-25T23:40:36.540Z,15.30
2023-09-25T23:43:03.581Z,15.30
2023-09-25T23:45:32.165Z,15.30
2023-09-25T23:47:59.145Z,15.30
2023-09-25T23:50:26.115Z,15.20
2023-09-25T23:52:54.710Z,15.20
2023-09-25T23:55:21.937Z,15.20
2023-09-25T23:57:48.974Z,15.20
